sensor_id;sensor_type;location;lat;lon;timestamp;P1;durP1;ratioP1;P2;durP2;ratioP2
20393;SDS011;10356;50.544;9.642;2023-06-10T00:00:00;15.55;;;11.38;;
20393;SDS011;10356;50.544;9.642;2023-06-10T00:02:28;12.07;;;10.65;;
20393;SDS011;10356;50.544;9.642;2023-06-10T00:04:54;16.40;;;11.30;;
20393;SDS011;10356;50.544;9.642;2023-06-10T00:07:23;13.13;;;10.93;;
20393;SDS011;10356;50.544;9.642;2023-06-10T00:09:49;12.82;;;11.50;;
20393;SDS011;10356;50.544;9.642;2023-06-10T00:12:16;13.35;;;11.25;;
20393;SDS011;10356;50.544;9.642;2023-06-10T00:14:43;15.27;;;11.05;;
20393;SDS011;10356;50.544;9.642;2023-06-10T00:17:09;12.43;;;11.00;;
20393;SDS011;10356;50.544;9.642;2023-06-10T00:19:36;13.32;;;11.43;;
20393;SDS011;10356;50.544;9.642;2023-06-10T00:22:06;13.30;;;11.43;;
20393;SDS011;10356;50.544;9.642;2023-06-10T00:24:34;13.75;;;11.35;;
20393;SDS011;10356;50.544;9.642;2023-06-10T00:27:01;14.88;;;10.60;;
20393;SDS011;10356;50.544;9.642;2023-06-10T00:29:28;11.70;;;10.45;;
20393;SDS011;10356;50.544;9.642;2023-06-10T00:31:54;14.52;;;11.57;;
20393;SDS011;10356;50.544;9.642;2023-06-10T00:34:22;12.52;;;11.23;;
20393;SDS011;10356;50.544;9.642;2023-06-10T00:36:49;13.25;;;11.23;;
20393;SDS011;10356;50.544;9.642;2023-06-10T00:39:15;12.68;;;11.48;;
20393;SDS011;10356;50.544;9.642;2023-06-10T00:41:43;15.05;;;11.63;;
20393;SDS011;10356;50.544;9.642;2023-06-10T00:44:10;13.63;;;11.88;;
20393;SDS011;10356;50.544;9.642;2023-06-10T00:46:37;15.07;;;12.60;;
20393;SDS011;10356;50.544;9.642;2023-06-10T00:49:03;13.90;;;11.73;;
20393;SDS011;10356;50.544;9.642;2023-06-10T00:51:31;14.98;;;13.00;;
20393;SDS011;10356;50.544;9.642;2023-06-10T00:53:57;15.80;;;12.82;;
20393;SDS011;10356;50.544;9.642;2023-06-10T00:56:24;18.25;;;13.50;;
20393;SDS011;10356;50.544;9.642;2023-06-10T00:58:53;15.20;;;12.27;;
20393;SDS011;10356;50.544;9.642;2023-06-10T01:01:19;17.55;;;12.30;;
20393;SDS011;10356;50.544;9.642;2023-06-10T01:03:46;15.55;;;12.52;;
20393;SDS011;10356;50.544;9.642;2023-06-10T01:06:14;14.82;;;12.68;;
20393;SDS011;10356;50.544;9.642;2023-06-10T01:08:46;14.35;;;12.52;;
20393;SDS011;10356;50.544;9.642;2023-06-10T01:11:23;16.25;;;13.85;;
20393;SDS011;10356;50.544;9.642;2023-06-10T01:13:56;17.67;;;13.98;;
20393;SDS011;10356;50.544;9.642;2023-06-10T01:16:24;15.55;;;12.93;;
20393;SDS011;10356;50.544;9.642;2023-06-10T01:18:51;17.52;;;13.05;;
20393;SDS011;10356;50.544;9.642;2023-06-10T01:21:21;18.58;;;13.15;;
20393;SDS011;10356;50.544;9.642;2023-06-10T01:23:49;16.20;;;13.30;;
20393;SDS011;10356;50.544;9.642;2023-06-10T01:26:16;15.93;;;14.23;;
20393;SDS011;10356;50.544;9.642;2023-06-10T01:28:45;17.08;;;15.27;;
20393;SDS011;10356;50.544;9.642;2023-06-10T01:31:20;20.00;;;17.63;;
20393;SDS011;10356;50.544;9.642;2023-06-10T01:33:58;20.88;;;17.00;;
20393;SDS011;10356;50.544;9.642;2023-06-10T01:36:27;24.40;;;20.08;;
20393;SDS011;10356;50.544;9.642;2023-06-10T01:38:55;21.20;;;18.95;;
20393;SDS011;10356;50.544;9.642;2023-06-10T01:41:23;24.85;;;19.35;;
20393;SDS011;10356;50.544;9.642;2023-06-10T01:43:50;22.17;;;19.45;;
20393;SDS011;10356;50.544;9.642;2023-06-10T01:46:17;23.27;;;20.50;;
20393;SDS011;10356;50.544;9.642;2023-06-10T01:48:46;21.05;;;18.27;;
20393;SDS011;10356;50.544;9.642;2023-06-10T01:51:12;25.27;;;20.45;;
20393;SDS011;10356;50.544;9.642;2023-06-10T01:53:40;21.95;;;19.38;;
20393;SDS011;10356;50.544;9.642;2023-06-10T01:56:07;23.15;;;18.08;;
20393;SDS011;10356;50.544;9.642;2023-06-10T01:58:33;20.33;;;17.58;;
20393;SDS011;10356;50.544;9.642;2023-06-10T02:01:00;20.13;;;17.85;;
20393;SDS011;10356;50.544;9.642;2023-06-10T02:03:26;19.63;;;17.10;;
20393;SDS011;10356;50.544;9.642;2023-06-10T02:05:52;20.50;;;18.17;;
20393;SDS011;10356;50.544;9.642;2023-06-10T02:08:19;20.13;;;17.92;;
20393;SDS011;10356;50.544;9.642;2023-06-10T02:10:47;19.73;;;17.05;;
20393;SDS011;10356;50.544;9.642;2023-06-10T02:13:13;21.23;;;16.23;;
20393;SDS011;10356;50.544;9.642;2023-06-10T02:15:40;19.98;;;16.58;;
20393;SDS011;10356;50.544;9.642;2023-06-10T02:18:06;17.75;;;16.00;;
20393;SDS011;10356;50.544;9.642;2023-06-10T02:20:33;19.50;;;15.82;;
20393;SDS011;10356;50.544;9.642;2023-06-10T02:22:59;17.60;;;15.57;;
20393;SDS011;10356;50.544;9.642;2023-06-10T02:25:25;20.67;;;15.90;;
20393;SDS011;10356;50.544;9.642;2023-06-10T02:27:53;19.48;;;15.90;;
20393;SDS011;10356;50.544;9.642;2023-06-10T02:30:20;20.30;;;15.25;;
20393;SDS011;10356;50.544;9.642;2023-06-10T02:32:47;18.20;;;15.57;;
20393;SDS011;10356;50.544;9.642;2023-06-10T02:35:15;22.02;;;16.35;;
20393;SDS011;10356;50.544;9.642;2023-06-10T02:37:42;21.15;;;15.27;;
20393;SDS011;10356;50.544;9.642;2023-06-10T02:40:09;18.83;;;15.70;;
20393;SDS011;10356;50.544;9.642;2023-06-10T02:42:36;18.58;;;15.00;;
20393;SDS011;10356;50.544;9.642;2023-06-10T02:45:04;17.80;;;14.07;;
20393;SDS011;10356;50.544;9.642;2023-06-10T02:47:31;15.48;;;13.82;;
20393;SDS011;10356;50.544;9.642;2023-06-10T02:49:58;16.80;;;13.68;;
20393;SDS011;10356;50.544;9.642;2023-06-10T02:52:24;16.02;;;14.35;;
20393;SDS011;10356;50.544;9.642;2023-06-10T02:54:51;16.92;;;14.50;;
20393;SDS011;10356;50.544;9.642;2023-06-10T02:57:17;16.95;;;14.30;;
20393;SDS011;10356;50.544;9.642;2023-06-10T02:59:44;17.10;;;13.50;;
20393;SDS011;10356;50.544;9.642;2023-06-10T03:02:12;17.65;;;14.75;;
20393;SDS011;10356;50.544;9.642;2023-06-10T03:04:38;18.73;;;14.27;;
20393;SDS011;10356;50.544;9.642;2023-06-10T03:07:06;16.40;;;14.40;;
20393;SDS011;10356;50.544;9.642;2023-06-10T03:09:33;17.55;;;14.80;;
20393;SDS011;10356;50.544;9.642;2023-06-10T03:12:00;17.40;;;14.30;;
20393;SDS011;10356;50.544;9.642;2023-06-10T03:14:27;15.38;;;13.23;;
20393;SDS011;10356;50.544;9.642;2023-06-10T03:16:54;16.23;;;14.43;;
20393;SDS011;10356;50.544;9.642;2023-06-10T03:19:22;15.65;;;13.98;;
20393;SDS011;10356;50.544;9.642;2023-06-10T03:21:49;19.05;;;14.23;;
20393;SDS011;10356;50.544;9.642;2023-06-10T03:24:20;15.05;;;13.43;;
20393;SDS011;10356;50.544;9.642;2023-06-10T03:26:47;18.48;;;13.82;;
20393;SDS011;10356;50.544;9.642;2023-06-10T03:29:13;17.92;;;14.65;;
20393;SDS011;10356;50.544;9.642;2023-06-10T03:31:40;20.63;;;15.65;;
20393;SDS011;10356;50.544;9.642;2023-06-10T03:34:06;18.20;;;16.27;;
20393;SDS011;10356;50.544;9.642;2023-06-10T03:36:34;19.23;;;15.10;;
20393;SDS011;10356;50.544;9.642;2023-06-10T03:39:02;19.40;;;15.65;;
20393;SDS011;10356;50.544;9.642;2023-06-10T03:41:28;16.83;;;15.02;;
20393;SDS011;10356;50.544;9.642;2023-06-10T03:43:57;18.25;;;14.82;;
20393;SDS011;10356;50.544;9.642;2023-06-10T03:46:23;17.70;;;14.60;;
20393;SDS011;10356;50.544;9.642;2023-06-10T03:48:50;17.42;;;14.70;;
20393;SDS011;10356;50.544;9.642;2023-06-10T03:51:16;16.25;;;14.55;;
20393;SDS011;10356;50.544;9.642;2023-06-10T03:53:44;20.05;;;13.57;;
20393;SDS011;10356;50.544;9.642;2023-06-10T03:56:11;14.95;;;13.15;;
20393;SDS011;10356;50.544;9.642;2023-06-10T03:58:37;15.73;;;12.20;;
20393;SDS011;10356;50.544;9.642;2023-06-10T04:01:04;14.98;;;13.02;;
20393;SDS011;10356;50.544;9.642;2023-06-10T04:03:30;12.82;;;11.25;;
20393;SDS011;10356;50.544;9.642;2023-06-10T04:05:57;15.85;;;10.85;;
20393;SDS011;10356;50.544;9.642;2023-06-10T04:08:24;10.93;;;9.77;;
20393;SDS011;10356;50.544;9.642;2023-06-10T04:10:52;15.35;;;11.00;;
20393;SDS011;10356;50.544;9.642;2023-06-10T04:13:18;12.75;;;10.50;;
20393;SDS011;10356;50.544;9.642;2023-06-10T04:15:45;13.50;;;10.32;;
20393;SDS011;10356;50.544;9.642;2023-06-10T04:18:12;13.80;;;10.32;;
20393;SDS011;10356;50.544;9.642;2023-06-10T04:20:38;14.13;;;9.07;;
20393;SDS011;10356;50.544;9.642;2023-06-10T04:23:04;11.85;;;9.30;;
20393;SDS011;10356;50.544;9.642;2023-06-10T04:25:31;13.00;;;9.55;;
20393;SDS011;10356;50.544;9.642;2023-06-10T04:27:59;17.13;;;9.80;;
20393;SDS011;10356;50.544;9.642;2023-06-10T04:30:25;15.52;;;9.80;;
20393;SDS011;10356;50.544;9.642;2023-06-10T04:32:52;11.57;;;10.35;;
20393;SDS011;10356;50.544;9.642;2023-06-10T04:35:19;11.00;;;9.82;;
20393;SDS011;10356;50.544;9.642;2023-06-10T04:37:46;10.82;;;9.70;;
20393;SDS011;10356;50.544;9.642;2023-06-10T04:40:13;13.23;;;10.07;;
20393;SDS011;10356;50.544;9.642;2023-06-10T04:42:41;12.95;;;9.90;;
20393;SDS011;10356;50.544;9.642;2023-06-10T04:45:09;15.80;;;9.32;;
20393;SDS011;10356;50.544;9.642;2023-06-10T04:47:35;14.82;;;10.20;;
20393;SDS011;10356;50.544;9.642;2023-06-10T04:50:02;14.25;;;9.93;;
20393;SDS011;10356;50.544;9.642;2023-06-10T04:52:29;15.80;;;10.25;;
20393;SDS011;10356;50.544;9.642;2023-06-10T04:54:57;12.27;;;10.75;;
20393;SDS011;10356;50.544;9.642;2023-06-10T04:57:23;15.38;;;10.43;;
20393;SDS011;10356;50.544;9.642;2023-06-10T04:59:51;11.95;;;10.30;;
20393;SDS011;10356;50.544;9.642;2023-06-10T05:02:18;19.00;;;10.73;;
20393;SDS011;10356;50.544;9.642;2023-06-10T05:04:45;13.73;;;10.27;;
20393;SDS011;10356;50.544;9.642;2023-06-10T05:07:11;13.38;;;11.27;;
20393;SDS011;10356;50.544;9.642;2023-06-10T05:09:38;13.23;;;10.90;;
20393;SDS011;10356;50.544;9.642;2023-06-10T05:12:05;14.25;;;11.05;;
20393;SDS011;10356;50.544;9.642;2023-06-10T05:14:32;13.05;;;10.23;;
20393;SDS011;10356;50.544;9.642;2023-06-10T05:16:58;13.90;;;11.27;;
20393;SDS011;10356;50.544;9.642;2023-06-10T05:19:26;12.23;;;10.60;;
20393;SDS011;10356;50.544;9.642;2023-06-10T05:21:53;13.27;;;10.90;;
20393;SDS011;10356;50.544;9.642;2023-06-10T05:24:19;17.05;;;11.15;;
20393;SDS011;10356;50.544;9.642;2023-06-10T05:26:46;11.93;;;10.45;;
20393;SDS011;10356;50.544;9.642;2023-06-10T05:29:13;17.33;;;10.02;;
20393;SDS011;10356;50.544;9.642;2023-06-10T05:31:40;14.23;;;10.25;;
20393;SDS011;10356;50.544;9.642;2023-06-10T05:34:06;11.63;;;10.18;;
20393;SDS011;10356;50.544;9.642;2023-06-10T05:36:34;12.05;;;10.75;;
20393;SDS011;10356;50.544;9.642;2023-06-10T05:39:01;11.02;;;9.48;;
20393;SDS011;10356;50.544;9.642;2023-06-10T05:41:27;15.43;;;9.52;;
20393;SDS011;10356;50.544;9.642;2023-06-10T05:43:54;10.73;;;9.63;;
20393;SDS011;10356;50.544;9.642;2023-06-10T05:46:21;12.77;;;9.10;;
20393;SDS011;10356;50.544;9.642;2023-06-10T05:48:47;10.77;;;9.30;;
20393;SDS011;10356;50.544;9.642;2023-06-10T05:51:14;12.10;;;8.70;;
20393;SDS011;10356;50.544;9.642;2023-06-10T05:53:41;9.63;;;8.55;;
20393;SDS011;10356;50.544;9.642;2023-06-10T05:56:08;9.93;;;8.18;;
20393;SDS011;10356;50.544;9.642;2023-06-10T05:58:34;15.57;;;9.15;;
20393;SDS011;10356;50.544;9.642;2023-06-10T06:01:01;12.00;;;9.20;;
20393;SDS011;10356;50.544;9.642;2023-06-10T06:03:27;12.13;;;9.23;;
20393;SDS011;10356;50.544;9.642;2023-06-10T06:05:54;13.70;;;9.02;;
20393;SDS011;10356;50.544;9.642;2023-06-10T06:08:20;12.05;;;8.55;;
20393;SDS011;10356;50.544;9.642;2023-06-10T06:10:48;11.63;;;7.90;;
20393;SDS011;10356;50.544;9.642;2023-06-10T06:13:16;10.68;;;8.00;;
20393;SDS011;10356;50.544;9.642;2023-06-10T06:15:42;9.15;;;8.10;;
20393;SDS011;10356;50.544;9.642;2023-06-10T06:18:09;9.60;;;7.90;;
20393;SDS011;10356;50.544;9.642;2023-06-10T06:20:35;9.75;;;6.97;;
20393;SDS011;10356;50.544;9.642;2023-06-10T06:23:01;11.05;;;7.80;;
20393;SDS011;10356;50.544;9.642;2023-06-10T06:25:28;9.23;;;7.22;;
20393;SDS011;10356;50.544;9.642;2023-06-10T06:27:56;12.98;;;7.00;;
20393;SDS011;10356;50.544;9.642;2023-06-10T06:30:22;12.30;;;7.25;;
20393;SDS011;10356;50.544;9.642;2023-06-10T06:32:49;8.00;;;7.20;;
20393;SDS011;10356;50.544;9.642;2023-06-10T06:35:16;7.80;;;7.00;;
20393;SDS011;10356;50.544;9.642;2023-06-10T06:37:43;9.98;;;6.88;;
20393;SDS011;10356;50.544;9.642;2023-06-10T06:40:10;9.10;;;7.13;;
20393;SDS011;10356;50.544;9.642;2023-06-10T06:42:37;7.32;;;6.63;;
20393;SDS011;10356;50.544;9.642;2023-06-10T06:45:06;10.40;;;6.50;;
20393;SDS011;10356;50.544;9.642;2023-06-10T06:47:33;9.57;;;6.13;;
20393;SDS011;10356;50.544;9.642;2023-06-10T06:49:59;10.50;;;6.05;;
20393;SDS011;10356;50.544;9.642;2023-06-10T06:52:27;9.43;;;5.60;;
20393;SDS011;10356;50.544;9.642;2023-06-10T06:54:53;8.57;;;6.63;;
20393;SDS011;10356;50.544;9.642;2023-06-10T06:57:20;7.43;;;6.15;;
20393;SDS011;10356;50.544;9.642;2023-06-10T06:59:48;7.85;;;6.18;;
20393;SDS011;10356;50.544;9.642;2023-06-10T07:02:16;7.13;;;5.88;;
20393;SDS011;10356;50.544;9.642;2023-06-10T07:04:43;8.52;;;6.40;;
20393;SDS011;10356;50.544;9.642;2023-06-10T07:07:12;9.23;;;5.97;;
20393;SDS011;10356;50.544;9.642;2023-06-10T07:09:38;8.93;;;6.40;;
20393;SDS011;10356;50.544;9.642;2023-06-10T07:12:05;7.88;;;5.80;;
20393;SDS011;10356;50.544;9.642;2023-06-10T07:14:32;7.65;;;5.80;;
20393;SDS011;10356;50.544;9.642;2023-06-10T07:16:59;7.65;;;5.53;;
20393;SDS011;10356;50.544;9.642;2023-06-10T07:19:26;10.18;;;5.72;;
20393;SDS011;10356;50.544;9.642;2023-06-10T07:21:53;7.20;;;5.47;;
20393;SDS011;10356;50.544;9.642;2023-06-10T07:24:19;9.43;;;5.75;;
20393;SDS011;10356;50.544;9.642;2023-06-10T07:26:46;8.60;;;5.55;;
20393;SDS011;10356;50.544;9.642;2023-06-10T07:29:12;8.05;;;6.07;;
20393;SDS011;10356;50.544;9.642;2023-06-10T07:31:40;8.32;;;6.07;;
20393;SDS011;10356;50.544;9.642;2023-06-10T07:34:07;9.68;;;5.57;;
20393;SDS011;10356;50.544;9.642;2023-06-10T07:36:35;8.90;;;6.18;;
20393;SDS011;10356;50.544;9.642;2023-06-10T07:39:01;8.68;;;5.55;;
20393;SDS011;10356;50.544;9.642;2023-06-10T07:41:28;7.60;;;5.47;;
20393;SDS011;10356;50.544;9.642;2023-06-10T07:43:54;8.35;;;5.82;;
20393;SDS011;10356;50.544;9.642;2023-06-10T07:46:21;7.28;;;5.93;;
20393;SDS011;10356;50.544;9.642;2023-06-10T07:48:48;8.77;;;5.50;;
20393;SDS011;10356;50.544;9.642;2023-06-10T07:51:15;9.35;;;5.50;;
20393;SDS011;10356;50.544;9.642;2023-06-10T07:53:44;7.97;;;5.72;;
20393;SDS011;10356;50.544;9.642;2023-06-10T07:56:10;8.77;;;5.85;;
20393;SDS011;10356;50.544;9.642;2023-06-10T07:58:37;12.55;;;6.15;;
20393;SDS011;10356;50.544;9.642;2023-06-10T08:01:04;8.68;;;5.57;;
20393;SDS011;10356;50.544;9.642;2023-06-10T08:03:30;11.15;;;6.28;;
20393;SDS011;10356;50.544;9.642;2023-06-10T08:05:57;8.57;;;5.57;;
20393;SDS011;10356;50.544;9.642;2023-06-10T08:08:23;7.85;;;5.18;;
20393;SDS011;10356;50.544;9.642;2023-06-10T08:10:51;8.05;;;5.38;;
20393;SDS011;10356;50.544;9.642;2023-06-10T08:13:18;10.45;;;5.80;;
20393;SDS011;10356;50.544;9.642;2023-06-10T08:15:44;7.82;;;4.97;;
20393;SDS011;10356;50.544;9.642;2023-06-10T08:18:12;9.23;;;5.20;;
20393;SDS011;10356;50.544;9.642;2023-06-10T08:20:39;7.85;;;5.63;;
20393;SDS011;10356;50.544;9.642;2023-06-10T08:23:05;7.60;;;5.43;;
20393;SDS011;10356;50.544;9.642;2023-06-10T08:25:32;7.68;;;5.55;;
20393;SDS011;10356;50.544;9.642;2023-06-10T08:28:00;11.32;;;6.00;;
20393;SDS011;10356;50.544;9.642;2023-06-10T08:30:26;8.77;;;5.70;;
20393;SDS011;10356;50.544;9.642;2023-06-10T08:32:52;8.00;;;5.32;;
20393;SDS011;10356;50.544;9.642;2023-06-10T08:35:20;7.90;;;5.30;;
20393;SDS011;10356;50.544;9.642;2023-06-10T08:37:47;9.52;;;5.88;;
20393;SDS011;10356;50.544;9.642;2023-06-10T08:40:13;7.40;;;5.78;;
20393;SDS011;10356;50.544;9.642;2023-06-10T08:42:42;8.50;;;5.05;;
20393;SDS011;10356;50.544;9.642;2023-06-10T08:45:17;6.40;;;5.40;;
20393;SDS011;10356;50.544;9.642;2023-06-10T08:47:44;7.82;;;5.95;;
20393;SDS011;10356;50.544;9.642;2023-06-10T08:50:12;7.70;;;5.20;;
20393;SDS011;10356;50.544;9.642;2023-06-10T08:52:40;8.10;;;5.47;;
20393;SDS011;10356;50.544;9.642;2023-06-10T08:55:10;7.45;;;5.40;;
20393;SDS011;10356;50.544;9.642;2023-06-10T08:57:40;8.00;;;5.32;;
20393;SDS011;10356;50.544;9.642;2023-06-10T09:00:08;8.38;;;5.18;;
20393;SDS011;10356;50.544;9.642;2023-06-10T09:02:37;6.20;;;5.10;;
20393;SDS011;10356;50.544;9.642;2023-06-10T09:05:04;5.80;;;5.00;;
20393;SDS011;10356;50.544;9.642;2023-06-10T09:07:31;7.25;;;5.63;;
20393;SDS011;10356;50.544;9.642;2023-06-10T09:09:59;7.20;;;5.80;;
20393;SDS011;10356;50.544;9.642;2023-06-10T09:12:28;6.00;;;5.30;;
20393;SDS011;10356;50.544;9.642;2023-06-10T09:14:54;10.02;;;5.75;;
20393;SDS011;10356;50.544;9.642;2023-06-10T09:17:21;9.63;;;6.05;;
20393;SDS011;10356;50.544;9.642;2023-06-10T09:19:49;9.50;;;5.90;;
20393;SDS011;10356;50.544;9.642;2023-06-10T09:22:18;7.78;;;5.18;;
20393;SDS011;10356;50.544;9.642;2023-06-10T09:24:46;9.27;;;5.35;;
20393;SDS011;10356;50.544;9.642;2023-06-10T09:27:13;8.32;;;5.45;;
20393;SDS011;10356;50.544;9.642;2023-06-10T09:29:46;8.90;;;5.70;;
20393;SDS011;10356;50.544;9.642;2023-06-10T09:32:14;10.57;;;5.57;;
20393;SDS011;10356;50.544;9.642;2023-06-10T09:34:43;10.30;;;6.03;;
20393;SDS011;10356;50.544;9.642;2023-06-10T09:37:11;8.38;;;5.25;;
20393;SDS011;10356;50.544;9.642;2023-06-10T09:39:38;5.88;;;5.25;;
20393;SDS011;10356;50.544;9.642;2023-06-10T09:42:14;7.45;;;5.80;;
20393;SDS011;10356;50.544;9.642;2023-06-10T09:44:46;8.57;;;6.03;;
20393;SDS011;10356;50.544;9.642;2023-06-10T09:47:19;8.63;;;5.63;;
20393;SDS011;10356;50.544;9.642;2023-06-10T09:49:47;8.27;;;5.72;;
20393;SDS011;10356;50.544;9.642;2023-06-10T09:52:15;7.47;;;6.15;;
20393;SDS011;10356;50.544;9.642;2023-06-10T09:54:47;9.40;;;6.28;;
20393;SDS011;10356;50.544;9.642;2023-06-10T09:57:14;8.38;;;5.55;;
20393;SDS011;10356;50.544;9.642;2023-06-10T09:59:43;7.38;;;5.47;;
20393;SDS011;10356;50.544;9.642;2023-06-10T10:02:13;7.28;;;6.10;;
20393;SDS011;10356;50.544;9.642;2023-06-10T10:04:40;8.00;;;5.97;;
20393;SDS011;10356;50.544;9.642;2023-06-10T10:07:07;6.28;;;5.63;;
20393;SDS011;10356;50.544;9.642;2023-06-10T10:09:36;6.43;;;5.18;;
20393;SDS011;10356;50.544;9.642;2023-06-10T10:12:03;7.45;;;6.15;;
20393;SDS011;10356;50.544;9.642;2023-06-10T10:14:36;7.93;;;5.38;;
20393;SDS011;10356;50.544;9.642;2023-06-10T10:17:04;8.18;;;5.50;;
20393;SDS011;10356;50.544;9.642;2023-06-10T10:19:33;6.10;;;5.20;;
20393;SDS011;10356;50.544;9.642;2023-06-10T10:22:06;5.43;;;4.53;;
20393;SDS011;10356;50.544;9.642;2023-06-10T10:24:38;14.35;;;4.95;;
20393;SDS011;10356;50.544;9.642;2023-06-10T10:27:11;6.85;;;4.95;;
20393;SDS011;10356;50.544;9.642;2023-06-10T10:29:43;9.45;;;5.55;;
20393;SDS011;10356;50.544;9.642;2023-06-10T10:32:13;5.72;;;4.55;;
20393;SDS011;10356;50.544;9.642;2023-06-10T10:34:42;11.73;;;5.05;;
20393;SDS011;10356;50.544;9.642;2023-06-10T10:37:17;8.57;;;5.18;;
20393;SDS011;10356;50.544;9.642;2023-06-10T10:39:45;7.28;;;4.90;;
20393;SDS011;10356;50.544;9.642;2023-06-10T10:42:12;6.25;;;4.50;;
20393;SDS011;10356;50.544;9.642;2023-06-10T10:44:39;7.85;;;4.82;;
20393;SDS011;10356;50.544;9.642;2023-06-10T10:47:07;9.85;;;5.15;;
20393;SDS011;10356;50.544;9.642;2023-06-10T10:49:34;6.60;;;4.90;;
20393;SDS011;10356;50.544;9.642;2023-06-10T10:52:03;4.88;;;4.07;;
20393;SDS011;10356;50.544;9.642;2023-06-10T10:54:31;6.88;;;4.85;;
20393;SDS011;10356;50.544;9.642;2023-06-10T10:57:13;5.72;;;4.50;;
20393;SDS011;10356;50.544;9.642;2023-06-10T10:59:45;7.00;;;4.60;;
20393;SDS011;10356;50.544;9.642;2023-06-10T11:02:15;10.25;;;4.78;;
20393;SDS011;10356;50.544;9.642;2023-06-10T11:04:44;6.53;;;4.70;;
20393;SDS011;10356;50.544;9.642;2023-06-10T11:07:12;5.72;;;4.53;;
20393;SDS011;10356;50.544;9.642;2023-06-10T11:09:40;6.22;;;4.28;;
20393;SDS011;10356;50.544;9.642;2023-06-10T11:12:25;6.63;;;4.75;;
20393;SDS011;10356;50.544;9.642;2023-06-10T11:14:53;5.00;;;4.20;;
20393;SDS011;10356;50.544;9.642;2023-06-10T11:17:21;6.18;;;4.10;;
20393;SDS011;10356;50.544;9.642;2023-06-10T11:19:48;4.50;;;4.10;;
20393;SDS011;10356;50.544;9.642;2023-06-10T11:22:16;5.53;;;4.28;;
20393;SDS011;10356;50.544;9.642;2023-06-10T11:24:47;5.07;;;4.00;;
20393;SDS011;10356;50.544;9.642;2023-06-10T11:27:15;5.32;;;4.10;;
20393;SDS011;10356;50.544;9.642;2023-06-10T11:29:57;7.05;;;3.75;;
20393;SDS011;10356;50.544;9.642;2023-06-10T11:32:25;5.32;;;3.90;;
20393;SDS011;10356;50.544;9.642;2023-06-10T11:34:56;5.30;;;3.72;;
20393;SDS011;10356;50.544;9.642;2023-06-10T11:37:23;5.53;;;4.38;;
20393;SDS011;10356;50.544;9.642;2023-06-10T11:39:51;5.13;;;3.97;;
20393;SDS011;10356;50.544;9.642;2023-06-10T11:42:18;6.22;;;3.53;;
20393;SDS011;10356;50.544;9.642;2023-06-10T11:44:47;4.65;;;3.95;;
20393;SDS011;10356;50.544;9.642;2023-06-10T11:47:16;8.10;;;4.18;;
20393;SDS011;10356;50.544;9.642;2023-06-10T11:49:42;4.05;;;3.45;;
20393;SDS011;10356;50.544;9.642;2023-06-10T11:52:09;4.60;;;3.83;;
20393;SDS011;10356;50.544;9.642;2023-06-10T11:54:36;5.70;;;3.97;;
20393;SDS011;10356;50.544;9.642;2023-06-10T11:57:04;5.93;;;4.00;;
20393;SDS011;10356;50.544;9.642;2023-06-10T11:59:33;6.25;;;4.25;;
20393;SDS011;10356;50.544;9.642;2023-06-10T12:01:59;4.47;;;3.42;;
20393;SDS011;10356;50.544;9.642;2023-06-10T12:04:28;8.85;;;4.13;;
20393;SDS011;10356;50.544;9.642;2023-06-10T12:06:54;6.40;;;3.70;;
20393;SDS011;10356;50.544;9.642;2023-06-10T12:09:22;5.15;;;3.80;;
20393;SDS011;10356;50.544;9.642;2023-06-10T12:11:50;5.40;;;4.00;;
20393;SDS011;10356;50.544;9.642;2023-06-10T12:17:37;4.28;;;3.88;;
20393;SDS011;10356;50.544;9.642;2023-06-10T12:20:06;6.75;;;3.55;;
20393;SDS011;10356;50.544;9.642;2023-06-10T12:22:38;4.93;;;4.00;;
20393;SDS011;10356;50.544;9.642;2023-06-10T12:25:06;5.50;;;3.58;;
20393;SDS011;10356;50.544;9.642;2023-06-10T12:27:33;4.07;;;3.60;;
20393;SDS011;10356;50.544;9.642;2023-06-10T12:30:00;8.20;;;4.15;;
20393;SDS011;10356;50.544;9.642;2023-06-10T12:32:36;5.95;;;3.65;;
20393;SDS011;10356;50.544;9.642;2023-06-10T12:35:06;5.65;;;3.78;;
20393;SDS011;10356;50.544;9.642;2023-06-10T12:37:33;5.72;;;4.07;;
20393;SDS011;10356;50.544;9.642;2023-06-10T12:40:00;5.15;;;3.88;;
20393;SDS011;10356;50.544;9.642;2023-06-10T12:42:28;6.53;;;3.70;;
20393;SDS011;10356;50.544;9.642;2023-06-10T12:44:55;5.90;;;3.60;;
20393;SDS011;10356;50.544;9.642;2023-06-10T12:47:29;4.68;;;3.70;;
20393;SDS011;10356;50.544;9.642;2023-06-10T12:49:56;4.57;;;3.40;;
20393;SDS011;10356;50.544;9.642;2023-06-10T12:52:25;4.60;;;3.50;;
20393;SDS011;10356;50.544;9.642;2023-06-10T12:54:52;5.07;;;4.10;;
20393;SDS011;10356;50.544;9.642;2023-06-10T12:57:19;4.20;;;3.80;;
20393;SDS011;10356;50.544;9.642;2023-06-10T12:59:46;5.82;;;3.95;;
20393;SDS011;10356;50.544;9.642;2023-06-10T13:02:17;5.97;;;3.60;;
20393;SDS011;10356;50.544;9.642;2023-06-10T13:04:44;4.38;;;3.53;;
20393;SDS011;10356;50.544;9.642;2023-06-10T13:07:11;4.20;;;3.90;;
20393;SDS011;10356;50.544;9.642;2023-06-10T13:09:39;6.85;;;3.70;;
20393;SDS011;10356;50.544;9.642;2023-06-10T13:12:06;4.00;;;3.55;;
20393;SDS011;10356;50.544;9.642;2023-06-10T13:14:34;4.38;;;3.95;;
20393;SDS011;10356;50.544;9.642;2023-06-10T13:17:02;4.97;;;3.65;;
20393;SDS011;10356;50.544;9.642;2023-06-10T13:19:30;5.38;;;4.22;;
20393;SDS011;10356;50.544;9.642;2023-06-10T13:21:57;4.88;;;4.35;;
20393;SDS011;10356;50.544;9.642;2023-06-10T13:24:24;5.15;;;3.63;;
20393;SDS011;10356;50.544;9.642;2023-06-10T13:26:52;7.72;;;3.97;;
20393;SDS011;10356;50.544;9.642;2023-06-10T13:29:19;5.35;;;3.80;;
20393;SDS011;10356;50.544;9.642;2023-06-10T13:31:46;5.35;;;3.60;;
20393;SDS011;10356;50.544;9.642;2023-06-10T13:34:13;6.60;;;4.43;;
20393;SDS011;10356;50.544;9.642;2023-06-10T13:36:39;4.72;;;4.15;;
20393;SDS011;10356;50.544;9.642;2023-06-10T13:39:06;7.30;;;4.55;;
20393;SDS011;10356;50.544;9.642;2023-06-10T13:41:32;4.63;;;3.90;;
20393;SDS011;10356;50.544;9.642;2023-06-10T13:44:00;5.97;;;4.38;;
20393;SDS011;10356;50.544;9.642;2023-06-10T13:46:27;4.82;;;4.32;;
20393;SDS011;10356;50.544;9.642;2023-06-10T13:48:53;4.78;;;4.38;;
20393;SDS011;10356;50.544;9.642;2023-06-10T13:51:19;6.57;;;4.28;;
20393;SDS011;10356;50.544;9.642;2023-06-10T13:53:46;6.57;;;4.53;;
20393;SDS011;10356;50.544;9.642;2023-06-10T13:56:12;5.82;;;4.35;;
20393;SDS011;10356;50.544;9.642;2023-06-10T13:58:39;7.20;;;4.70;;
20393;SDS011;10356;50.544;9.642;2023-06-10T14:01:08;5.15;;;4.65;;
20393;SDS011;10356;50.544;9.642;2023-06-10T14:03:34;4.75;;;4.35;;
20393;SDS011;10356;50.544;9.642;2023-06-10T14:06:01;8.40;;;4.95;;
20393;SDS011;10356;50.544;9.642;2023-06-10T14:08:28;6.68;;;5.38;;
20393;SDS011;10356;50.544;9.642;2023-06-10T14:10:54;5.40;;;4.90;;
20393;SDS011;10356;50.544;9.642;2023-06-10T14:13:21;6.47;;;4.82;;
20393;SDS011;10356;50.544;9.642;2023-06-10T14:15:47;6.35;;;5.15;;
20393;SDS011;10356;50.544;9.642;2023-06-10T14:18:16;5.53;;;5.03;;
20393;SDS011;10356;50.544;9.642;2023-06-10T14:20:42;7.15;;;5.18;;
20393;SDS011;10356;50.544;9.642;2023-06-10T14:23:09;9.23;;;6.10;;
20393;SDS011;10356;50.544;9.642;2023-06-10T14:25:35;6.78;;;5.68;;
20393;SDS011;10356;50.544;9.642;2023-06-10T14:28:02;7.28;;;5.47;;
20393;SDS011;10356;50.544;9.642;2023-06-10T14:30:29;7.13;;;6.18;;
20393;SDS011;10356;50.544;9.642;2023-06-10T14:32:55;9.10;;;5.90;;
20393;SDS011;10356;50.544;9.642;2023-06-10T14:35:23;6.78;;;6.22;;
20393;SDS011;10356;50.544;9.642;2023-06-10T14:37:49;7.32;;;5.88;;
20393;SDS011;10356;50.544;9.642;2023-06-10T14:40:16;7.15;;;6.45;;